createdAt,value
2018-12-21T00:01:49.121Z,98553.00
2018-12-21T00:04:17.983Z,98545.00
2018-12-21T00:06:46.828Z,98565.00
2018-12-21T00:09:15.636Z,98562.00
2018-12-21T00:11:44.572Z,98558.00
2018-12-21T00:14:13.444Z,98564.00
2018-12-21T00:16:42.313Z,98560.00
2018-12-21T00:19:11.172Z,98564.00
2018-12-21T00:21:40.083Z,98561.00
2018-12-21T00:24:08.939Z,98559.00
2018-12-21T00:26:37.722Z,98557.00
2018-12-21T00:29:06.597Z,98554.00
2018-12-21T00:31:40.598Z,98556.00
2018-12-21T00:34:14.743Z,98561.00
2018-12-21T00:36:48.597Z,98551.00
2018-12-21T00:39:22.580Z,98548.00
2018-12-21T00:41:50.619Z,98547.00
2018-12-21T00:44:36.217Z,98547.00
2018-12-21T00:47:11.758Z,98541.00
2018-12-21T00:49:40.806Z,98543.00
2018-12-21T00:52:09.688Z,98545.00
2018-12-21T00:54:38.494Z,98546.00
2018-12-21T00:57:07.412Z,98536.00
2018-12-21T00:59:36.228Z,98534.00
2018-12-21T01:02:05.321Z,98524.00
2018-12-21T01:04:34.208Z,98528.00
2018-12-21T01:07:03.087Z,98531.00
2018-12-21T01:09:31.888Z,98543.00
2018-12-21T01:12:01.156Z,98542.00
2018-12-21T01:14:30.267Z,98541.00
2018-12-21T01:16:59.116Z,98542.00
2018-12-21T01:19:27.948Z,98540.00
2018-12-21T01:21:56.826Z,98545.00
2018-12-21T01:24:25.711Z,98540.00
2018-12-21T01:26:54.532Z,98548.00
2018-12-21T01:29:23.336Z,98547.00
2018-12-21T01:31:52.224Z,98540.00
2018-12-21T01:34:21.079Z,98549.00
2018-12-21T01:36:49.968Z,98549.00
2018-12-21T01:39:18.849Z,98547.00
2018-12-21T01:41:47.719Z,98542.00
2018-12-21T01:44:16.595Z,98547.00
2018-12-21T01:46:45.396Z,98551.00
2018-12-21T01:49:14.308Z,98551.00
2018-12-21T01:51:47.103Z,98546.00
2018-12-21T01:54:14.045Z,98542.00
2018-12-21T01:56:42.825Z,98540.00
2018-12-21T01:59:11.741Z,98534.00
2018-12-21T02:01:40.611Z,98531.00
2018-12-21T02:04:09.413Z,98526.00
2018-12-21T02:06:38.353Z,98535.00
2018-12-21T02:09:08.052Z,98535.00
2018-12-21T02:11:36.899Z,98530.00
2018-12-21T02:14:05.879Z,98534.00
2018-12-21T02:16:34.780Z,98523.00
2018-12-21T02:19:03.609Z,98522.00
2018-12-21T02:21:32.397Z,98519.00
2018-12-21T02:24:01.301Z,98514.00
2018-12-21T02:26:30.192Z,98514.00
2018-12-21T02:28:59.069Z,98513.00
2018-12-21T02:31:27.875Z,98510.00
2018-12-21T02:33:56.668Z,98512.00
2018-12-21T02:36:25.525Z,98517.00
2018-12-21T02:38:54.356Z,98519.00
2018-12-21T02:41:23.169Z,98502.00
2018-12-21T02:43:52.025Z,98499.00
2018-12-21T02:46:20.915Z,98489.00
2018-12-21T02:48:49.863Z,98486.00
2018-12-21T02:51:18.665Z,98480.00
2018-12-21T02:53:47.558Z,98479.00
2018-12-21T02:56:16.449Z,98482.00
2018-12-21T02:58:45.291Z,98481.00
2018-12-21T03:01:14.066Z,98473.00
2018-12-21T03:03:42.937Z,98483.00
2018-12-21T03:06:11.732Z,98472.00
2018-12-21T03:08:40.628Z,98466.00
2018-12-21T03:11:09.519Z,98469.00
2018-12-21T03:13:38.490Z,98461.00
2018-12-21T03:16:07.304Z,98448.00
2018-12-21T03:18:36.221Z,98452.00
2018-12-21T03:21:05.093Z,98445.00
2018-12-21T03:23:33.872Z,98438.00
2018-12-21T03:26:02.694Z,98433.00
2018-12-21T03:28:31.499Z,98442.00
2018-12-21T03:31:00.396Z,98433.00
2018-12-21T03:33:29.351Z,98423.00
2018-12-21T03:35:58.187Z,98425.00
2018-12-21T03:38:27.091Z,98422.00
2018-12-21T03:40:55.985Z,98404.00
2018-12-21T03:43:24.819Z,98410.00
2018-12-21T03:45:53.627Z,98393.00
2018-12-21T03:48:22.645Z,98399.00
2018-12-21T03:50:51.416Z,98389.00
2018-12-21T03:53:20.245Z,98393.00
2018-12-21T03:55:49.038Z,98394.00
2018-12-21T03:58:17.959Z,98367.00
2018-12-21T04:00:46.847Z,98379.00
2018-12-21T04:03:15.658Z,98376.00
2018-12-21T04:05:44.544Z,98364.00
2018-12-21T04:08:13.465Z,98366.00
2018-12-21T04:10:42.272Z,98373.00
2018-12-21T04:13:11.102Z,98362.00
2018-12-21T04:15:39.861Z,98360.00
2018-12-21T04:18:08.738Z,98367.00
2018-12-21T04:20:37.872Z,98358.00
2018-12-21T04:23:06.679Z,98349.00
2018-12-21T04:25:35.560Z,98343.00
2018-12-21T04:28:04.405Z,98354.00
2018-12-21T04:30:33.300Z,98346.00
2018-12-21T04:33:02.192Z,98342.00
2018-12-21T04:35:31.050Z,98338.00
2018-12-21T04:37:59.870Z,98343.00
2018-12-21T04:40:28.687Z,98328.00
2018-12-21T04:42:57.561Z,98326.00
2018-12-21T04:45:26.321Z,98335.00
2018-12-21T04:47:55.174Z,98329.00
2018-12-21T04:50:23.974Z,98331.00
2018-12-21T04:52:53.761Z,98327.00
2018-12-21T04:55:22.682Z,98315.00
2018-12-21T04:57:51.603Z,98318.00
2018-12-21T05:00:20.497Z,98316.00
2018-12-21T05:02:49.406Z,98308.00
2018-12-21T05:05:18.583Z,98288.00
2018-12-21T05:07:47.425Z,98307.00
2018-12-21T05:10:16.337Z,98299.00
2018-12-21T05:12:45.423Z,98305.00
2018-12-21T05:15:14.255Z,98297.00
2018-12-21T05:17:43.065Z,98301.00
2018-12-21T05:20:11.971Z,98302.00
2018-12-21T05:22:41.052Z,98301.00
2018-12-21T05:25:11.562Z,98302.00
2018-12-21T05:27:40.531Z,98303.00
2018-12-21T05:30:10.189Z,98311.00
2018-12-21T05:32:39.190Z,98316.00
2018-12-21T05:35:09.006Z,98318.00
2018-12-21T05:37:39.159Z,98320.00
2018-12-21T05:40:08.014Z,98314.00
2018-12-21T05:42:36.925Z,98320.00
2018-12-21T05:45:06.239Z,98309.00
2018-12-21T05:47:35.156Z,98302.00
2018-12-21T05:50:05.386Z,98311.00
2018-12-21T05:52:34.213Z,98311.00
2018-12-21T05:55:03.053Z,98316.00
2018-12-21T05:57:33.385Z,98304.00
2018-12-21T06:00:02.333Z,98308.00
2018-12-21T06:02:31.226Z,98307.00
2018-12-21T06:05:28.254Z,98303.00
2018-12-21T06:07:57.487Z,98298.00
2018-12-21T06:10:26.578Z,98296.00
2018-12-21T06:12:55.696Z,98279.00
2018-12-21T06:15:24.905Z,98281.00
2018-12-21T06:17:54.098Z,98286.00
2018-12-21T06:20:23.126Z,98286.00
2018-12-21T06:22:52.770Z,98279.00
2018-12-21T06:25:21.870Z,98275.00
2018-12-21T06:27:51.399Z,98260.00
2018-12-21T06:30:20.697Z,98250.00
2018-12-21T06:32:49.916Z,98242.00
2018-12-21T06:35:19.149Z,98241.00
2018-12-21T06:37:48.590Z,98234.00
2018-12-21T06:40:17.865Z,98227.00
2018-12-21T06:42:47.250Z,98213.00
2018-12-21T06:45:16.450Z,98200.00
2018-12-21T06:47:45.641Z,98213.00
2018-12-21T06:50:15.007Z,98224.00
2018-12-21T06:52:44.154Z,98218.00
2018-12-21T06:55:13.305Z,98211.00
2018-12-21T06:57:42.330Z,98203.00
2018-12-21T07:00:12.922Z,98182.00
2018-12-21T07:02:42.052Z,98191.00
2018-12-21T07:05:11.267Z,98185.00
2018-12-21T07:07:40.438Z,98188.00
2018-12-21T07:10:11.105Z,98184.00
2018-12-21T07:12:40.251Z,98172.00
2018-12-21T07:15:09.950Z,98178.00
2018-12-21T07:17:39.142Z,98163.00
2018-12-21T07:20:09.724Z,98158.00
2018-12-21T07:22:38.934Z,98160.00
2018-12-21T07:25:08.886Z,98156.00
2018-12-21T07:27:37.997Z,98159.00
2018-12-21T07:30:10.008Z,98156.00
2018-12-21T07:32:39.116Z,98156.00
2018-12-21T07:35:10.758Z,98159.00
2018-12-21T07:37:40.074Z,98149.00
2018-12-21T07:40:10.306Z,98140.00
2018-12-21T07:42:39.543Z,98125.00
2018-12-21T07:45:10.087Z,98119.00
2018-12-21T07:47:39.302Z,98129.00
2018-12-21T07:50:09.955Z,98119.00
2018-12-21T07:52:39.045Z,98118.00
2018-12-21T07:55:09.819Z,98114.00
2018-12-21T07:57:38.908Z,98105.00
2018-12-21T08:00:11.153Z,98101.00
2018-12-21T08:02:40.293Z,98091.00
2018-12-21T08:05:09.801Z,98108.00
2018-12-21T08:07:38.821Z,98106.00
2018-12-21T08:10:11.952Z,98112.00
2018-12-21T08:12:41.189Z,98110.00
2018-12-21T08:15:10.338Z,98099.00
2018-12-21T08:17:39.595Z,98094.00
2018-12-21T08:20:09.663Z,98097.00
2018-12-21T08:22:38.914Z,98066.00
2018-12-21T08:25:08.241Z,98064.00
2018-12-21T08:27:38.420Z,98058.00
2018-12-21T08:30:09.134Z,98039.00
2018-12-21T08:32:38.319Z,98044.00
2018-12-21T08:35:07.591Z,98035.00
2018-12-21T08:37:36.760Z,98027.00
2018-12-21T08:40:07.701Z,98008.00
2018-12-21T08:42:36.779Z,98007.00
2018-12-21T08:45:08.243Z,98002.00
2018-12-21T08:47:37.387Z,98004.00
2018-12-21T08:50:09.111Z,97990.00
2018-12-21T08:52:38.172Z,97983.00
2018-12-21T08:55:07.863Z,97982.00
2018-12-21T08:57:36.973Z,97979.00
2018-12-21T09:00:08.431Z,97976.00
2018-12-21T09:02:37.502Z,97968.00
2018-12-21T09:05:07.051Z,97968.00
2018-12-21T09:07:37.216Z,97967.00
2018-12-21T09:10:08.787Z,97955.00
2018-12-21T09:12:38.023Z,97958.00
2018-12-21T09:15:09.958Z,97955.00
2018-12-21T09:17:39.195Z,97960.00
2018-12-21T09:20:09.853Z,97959.00
2018-12-21T09:22:38.976Z,97951.00
2018-12-21T09:25:08.233Z,97947.00
2018-12-21T09:27:37.373Z,97946.00
2018-12-21T09:30:10.275Z,97948.00
2018-12-21T09:32:39.457Z,97947.00
2018-12-21T09:35:08.546Z,97946.00
2018-12-21T09:37:37.679Z,97942.00
2018-12-21T09:40:10.324Z,97932.00
2018-12-21T09:42:39.587Z,97932.00
2018-12-21T09:45:08.779Z,97931.00
2018-12-21T09:47:38.047Z,97916.00
2018-12-21T09:50:09.086Z,97913.00
2018-12-21T09:52:39.022Z,97903.00
2018-12-21T09:55:09.489Z,97895.00
2018-12-21T09:57:39.633Z,97895.00
2018-12-21T10:00:11.142Z,97881.00
2018-12-21T10:02:40.595Z,97883.00
2018-12-21T10:05:14.429Z,97875.00
2018-12-21T10:07:43.444Z,97868.00
2018-12-21T10:10:12.511Z,97856.00
2018-12-21T10:12:41.605Z,97844.00
2018-12-21T10:15:11.034Z,97845.00
2018-12-21T10:17:40.124Z,97839.00
2018-12-21T10:20:09.702Z,97823.00
2018-12-21T10:22:39.030Z,97825.00
2018-12-21T10:25:08.129Z,97817.00
2018-12-21T10:27:37.251Z,97815.00
2018-12-21T10:30:08.564Z,97807.00
2018-12-21T10:32:37.662Z,97807.00
2018-12-21T10:35:06.645Z,97787.00
2018-12-21T10:37:35.777Z,97795.00
2018-12-21T10:40:04.878Z,97787.00
2018-12-21T10:42:34.015Z,97784.00
2018-12-21T10:45:03.228Z,97771.00
2018-12-21T10:47:32.427Z,97767.00
2018-12-21T10:50:01.616Z,97761.00
2018-12-21T10:52:32.809Z,97745.00
2018-12-21T10:55:01.993Z,97738.00
2018-12-21T10:57:30.881Z,97737.00
2018-12-21T10:59:59.980Z,97714.00
2018-12-21T11:02:29.058Z,97724.00
2018-12-21T11:04:58.189Z,97714.00
2018-12-21T11:07:27.272Z,97720.00
2018-12-21T11:09:56.229Z,97700.00
2018-12-21T11:12:25.408Z,97687.00
2018-12-21T11:14:54.535Z,97678.00
2018-12-21T11:17:23.730Z,97677.00
2018-12-21T11:19:52.825Z,97667.00
2018-12-21T11:22:22.044Z,97648.00
2018-12-21T11:24:51.230Z,97632.00
2018-12-21T11:27:20.407Z,97633.00
2018-12-21T11:29:49.671Z,97625.00
2018-12-21T11:32:19.049Z,97617.00
2018-12-21T11:34:48.246Z,97610.00
2018-12-21T11:37:17.303Z,97612.00
2018-12-21T11:39:46.492Z,97610.00
2018-12-21T11:42:15.737Z,97595.00
2018-12-21T11:44:44.918Z,97597.00
2018-12-21T11:47:14.004Z,97599.00
2018-12-21T11:49:43.200Z,97590.00
2018-12-21T11:52:12.414Z,97602.00
2018-12-21T11:54:44.440Z,97596.00
2018-12-21T11:57:12.762Z,97593.00
2018-12-21T11:59:44.998Z,97597.00
2018-12-21T12:02:19.439Z,97603.00
2018-12-21T12:04:44.395Z,97589.00
2018-12-21T12:07:13.498Z,97577.00
2018-12-21T12:09:42.804Z,97595.00
2018-12-21T12:12:11.992Z,97584.00
2018-12-21T12:14:41.200Z,97576.00
2018-12-21T12:17:10.489Z,97557.00
2018-12-21T12:19:39.657Z,97555.00
2018-12-21T12:22:08.843Z,97563.00
2018-12-21T12:24:38.096Z,97555.00
2018-12-21T12:27:07.338Z,97545.00
2018-12-21T12:29:36.541Z,97528.00
2018-12-21T12:32:10.094Z,97541.00
2018-12-21T12:34:39.332Z,97540.00
2018-12-21T12:37:08.382Z,97535.00
2018-12-21T12:39:37.503Z,97526.00
2018-12-21T12:42:06.688Z,97531.00
2018-12-21T12:44:35.776Z,97526.00
2018-12-21T12:47:04.712Z,97524.00
2018-12-21T12:49:33.696Z,97529.00
2018-12-21T12:52:02.897Z,97510.00
2018-12-21T12:54:31.945Z,97522.00
2018-12-21T12:57:01.077Z,97513.00
2018-12-21T12:59:30.226Z,97503.00
2018-12-21T13:01:59.267Z,97524.00
2018-12-21T13:04:28.352Z,97520.00
2018-12-21T13:06:57.738Z,97495.00
2018-12-21T13:09:27.259Z,97515.00
2018-12-21T13:11:56.490Z,97514.00
2018-12-21T13:14:25.560Z,97525.00
2018-12-21T13:16:54.651Z,97524.00
2018-12-21T13:19:23.844Z,97512.00
2018-12-21T13:21:52.984Z,97513.00
2018-12-21T13:24:22.243Z,97512.00
2018-12-21T13:26:51.327Z,97519.00
2018-12-21T13:29:20.491Z,97522.00
2018-12-21T13:31:49.602Z,97516.00
2018-12-21T13:34:18.749Z,97529.00
2018-12-21T13:36:47.927Z,97503.00
2018-12-21T13:39:17.147Z,97520.00
2018-12-21T13:41:46.305Z,97529.00
2018-12-21T13:44:15.175Z,97516.00
2018-12-21T13:46:44.319Z,97516.00
2018-12-21T13:49:13.469Z,97529.00
2018-12-21T13:51:42.550Z,97526.00
2018-12-21T13:54:12.706Z,97522.00
2018-12-21T13:56:43.093Z,97526.00
2018-12-21T13:59:12.527Z,97527.00
2018-12-21T14:01:41.626Z,97517.00
2018-12-21T14:04:10.722Z,97520.00
2018-12-21T14:06:39.728Z,97526.00
2018-12-21T14:09:09.088Z,97523.00
2018-12-21T14:11:38.140Z,97520.00
2018-12-21T14:14:07.509Z,97515.00
2018-12-21T14:16:36.603Z,97509.00
2018-12-21T14:19:05.698Z,97502.00
2018-12-21T14:21:34.906Z,97512.00
2018-12-21T14:24:04.047Z,97497.00
2018-12-21T14:26:33.240Z,97520.00
2018-12-21T14:29:02.332Z,97522.00
2018-12-21T14:31:31.544Z,97530.00
2018-12-21T14:34:00.540Z,97529.00
2018-12-21T14:36:29.910Z,97526.00
2018-12-21T14:38:59.279Z,97533.00
2018-12-21T14:41:28.435Z,97538.00
2018-12-21T14:43:57.687Z,97528.00
2018-12-21T14:46:26.871Z,97526.00
2018-12-21T14:48:56.408Z,97516.00
2018-12-21T14:51:25.558Z,97528.00
2018-12-21T14:53:54.851Z,97513.00
2018-12-21T14:56:24.157Z,97516.00
2018-12-21T14:58:53.190Z,97516.00
2018-12-21T15:01:22.327Z,97522.00
2018-12-21T15:03:51.700Z,97520.00
2018-12-21T15:06:20.802Z,97516.00
2018-12-21T15:08:49.845Z,97516.00
2018-12-21T15:11:18.898Z,97505.00
2018-12-21T15:13:49.439Z,97527.00
2018-12-21T15:16:18.708Z,97520.00
2018-12-21T15:18:47.732Z,97520.00
2018-12-21T15:21:16.818Z,97515.00
2018-12-21T15:23:45.895Z,97526.00
2018-12-21T15:26:15.135Z,97510.00
2018-12-21T15:28:44.151Z,97512.00
2018-12-21T15:31:13.250Z,97522.00
2018-12-21T15:33:42.562Z,97532.00
2018-12-21T15:36:11.768Z,97519.00
2018-12-21T15:38:40.774Z,97521.00
2018-12-21T15:41:10.095Z,97517.00
2018-12-21T15:43:39.276Z,97510.00
2018-12-21T15:46:08.574Z,97521.00
2018-12-21T15:48:37.692Z,97529.00
2018-12-21T15:51:06.942Z,97533.00
2018-12-21T15:53:36.092Z,97537.00
2018-12-21T15:56:05.232Z,97542.00
2018-12-21T15:58:34.411Z,97547.00
2018-12-21T16:01:03.559Z,97539.00
2018-12-21T16:03:32.661Z,97547.00
2018-12-21T16:06:01.767Z,97553.00
2018-12-21T16:08:30.970Z,97535.00
2018-12-21T16:11:00.041Z,97551.00
2018-12-21T16:13:29.147Z,97552.00
2018-12-21T16:15:58.307Z,97544.00
2018-12-21T16:18:27.506Z,97559.00
2018-12-21T16:20:56.899Z,97569.00
2018-12-21T16:23:25.999Z,97565.00
2018-12-21T16:26:03.318Z,97580.00
2018-12-21T16:28:26.640Z,97584.00
2018-12-21T16:30:55.869Z,97589.00
2018-12-21T16:33:25.161Z,97583.00
2018-12-21T16:35:54.277Z,97589.00
2018-12-21T16:38:23.473Z,97585.00
2018-12-21T16:40:52.650Z,97596.00
2018-12-21T16:43:22.105Z,97586.00
2018-12-21T16:45:51.659Z,97577.00
2018-12-21T16:48:21.052Z,97589.00
2018-12-21T16:50:50.268Z,97574.00
2018-12-21T16:53:19.717Z,97597.00
2018-12-21T16:55:49.108Z,97586.00
2018-12-21T16:58:18.422Z,97577.00
2018-12-21T17:00:47.785Z,97564.00
2018-12-21T17:03:16.831Z,97571.00
2018-12-21T17:05:45.909Z,97572.00
2018-12-21T17:08:15.363Z,97558.00
2018-12-21T17:10:45.056Z,97572.00
2018-12-21T17:13:14.158Z,97570.00
2018-12-21T17:15:43.181Z,97566.00
2018-12-21T17:18:13.594Z,97572.00
2018-12-21T17:20:42.514Z,97556.00
2018-12-21T17:23:11.739Z,97581.00
2018-12-21T17:25:40.583Z,97579.00
2018-12-21T17:28:10.551Z,97561.00
2018-12-21T17:30:39.591Z,97563.00
2018-12-21T17:33:08.587Z,97561.00
2018-12-21T17:35:37.882Z,97562.00
2018-12-21T17:38:07.075Z,97577.00
2018-12-21T17:40:36.130Z,97568.00
2018-12-21T17:43:05.212Z,97594.00
2018-12-21T17:45:34.335Z,97571.00
2018-12-21T17:48:03.569Z,97574.00
2018-12-21T17:50:32.778Z,97580.00
2018-12-21T17:53:02.281Z,97587.00
2018-12-21T17:55:31.432Z,97598.00
2018-12-21T17:58:00.526Z,97602.00
2018-12-21T18:00:29.831Z,97584.00
2018-12-21T18:02:59.253Z,97581.00
2018-12-21T18:05:28.418Z,97599.00
2018-12-21T18:07:57.941Z,97595.00
2018-12-21T18:10:27.267Z,97588.00
2018-12-21T18:12:56.443Z,97591.00
2018-12-21T18:15:25.684Z,97596.00
2018-12-21T18:17:54.733Z,97601.00
2018-12-21T18:20:23.857Z,97584.00
2018-12-21T18:22:53.048Z,97587.00
2018-12-21T18:25:26.021Z,97603.00
2018-12-21T18:27:57.112Z,97603.00
2018-12-21T18:30:31.152Z,97636.00
2018-12-21T18:33:10.224Z,97621.00
2018-12-21T18:35:33.656Z,97604.00
2018-12-21T18:38:05.332Z,97624.00
2018-12-21T18:40:34.935Z,97610.00
2018-12-21T18:43:04.060Z,97608.00
2018-12-21T18:45:33.385Z,97608.00
2018-12-21T18:48:02.535Z,97596.00
2018-12-21T18:50:32.316Z,97602.00
2018-12-21T18:53:01.635Z,97598.00
2018-12-21T18:55:31.088Z,97607.00
2018-12-21T18:58:00.126Z,97601.00
2018-12-21T19:00:29.382Z,97623.00
2018-12-21T19:02:58.556Z,97605.00
2018-12-21T19:05:27.829Z,97603.00
2018-12-21T19:07:56.936Z,97613.00
2018-12-21T19:10:26.032Z,97613.00
2018-12-21T19:12:55.228Z,97599.00
2018-12-21T19:15:24.317Z,97603.00
2018-12-21T19:17:53.478Z,97619.00
2018-12-21T19:20:22.759Z,97596.00
2018-12-21T19:22:51.968Z,97623.00
2018-12-21T19:25:21.172Z,97610.00
2018-12-21T19:27:50.275Z,97606.00
2018-12-21T19:30:19.399Z,97618.00
2018-12-21T19:32:48.559Z,97628.00
2018-12-21T19:35:17.659Z,97619.00
2018-12-21T19:37:46.915Z,97631.00
2018-12-21T19:40:17.234Z,97626.00
2018-12-21T19:42:46.320Z,97627.00
2018-12-21T19:45:15.666Z,97639.00
2018-12-21T19:47:45.043Z,97638.00
2018-12-21T19:50:14.434Z,97629.00
2018-12-21T19:52:43.691Z,97628.00
2018-12-21T19:55:19.907Z,97634.00
2018-12-21T19:57:49.184Z,97630.00
2018-12-21T20:00:18.159Z,97625.00
2018-12-21T20:02:48.280Z,97633.00
2018-12-21T20:05:17.296Z,97642.00
2018-12-21T20:07:46.515Z,97640.00
2018-12-21T20:10:15.693Z,97635.00
2018-12-21T20:12:44.906Z,97648.00
2018-12-21T20:15:14.134Z,97632.00
2018-12-21T20:17:43.262Z,97643.00
2018-12-21T20:20:12.699Z,97648.00
2018-12-21T20:22:41.928Z,97646.00
2018-12-21T20:25:11.611Z,97651.00
2018-12-21T20:27:41.236Z,97637.00
2018-12-21T20:30:13.964Z,97655.00
2018-12-21T20:32:44.188Z,97639.00
2018-12-21T20:35:13.238Z,97648.00
2018-12-21T20:37:42.325Z,97653.00
2018-12-21T20:40:12.425Z,97642.00
2018-12-21T20:42:41.595Z,97648.00
2018-12-21T20:45:11.484Z,97639.00
2018-12-21T20:47:40.579Z,97651.00
2018-12-21T20:50:13.122Z,97650.00
2018-12-21T20:52:42.364Z,97653.00
2018-12-21T20:55:11.425Z,97644.00
2018-12-21T20:57:41.450Z,97636.00
2018-12-21T21:00:13.851Z,97656.00
2018-12-21T21:02:42.865Z,97637.00
2018-12-21T21:05:12.056Z,97652.00
2018-12-21T21:07:41.158Z,97655.00
2018-12-21T21:10:12.440Z,97656.00
2018-12-21T21:12:41.865Z,97674.00
2018-12-21T21:15:12.504Z,97652.00
2018-12-21T21:17:41.891Z,97670.00
2018-12-21T21:20:13.249Z,97656.00
2018-12-21T21:22:42.589Z,97671.00
2018-12-21T21:25:11.677Z,97663.00
2018-12-21T21:27:40.734Z,97663.00
2018-12-21T21:30:13.157Z,97676.00
2018-12-21T21:32:42.232Z,97674.00
2018-12-21T21:35:11.330Z,97681.00
2018-12-21T21:37:40.554Z,97679.00
2018-12-21T21:40:13.112Z,97679.00
2018-12-21T21:42:42.240Z,97676.00
2018-12-21T21:45:11.487Z,97686.00
2018-12-21T21:47:40.628Z,97683.00
2018-12-21T21:50:09.905Z,97693.00
2018-12-21T21:52:39.010Z,97676.00
2018-12-21T21:55:08.059Z,97686.00
2018-12-21T21:57:39.491Z,97700.00
2018-12-21T22:00:11.092Z,97689.00
2018-12-21T22:02:40.321Z,97697.00
2018-12-21T22:05:09.416Z,97695.00
2018-12-21T22:07:38.569Z,97700.00
2018-12-21T22:10:10.032Z,97697.00
2018-12-21T22:12:39.405Z,97698.00
2018-12-21T22:15:09.791Z,97706.00
2018-12-21T22:17:38.867Z,97698.00
2018-12-21T22:20:10.353Z,97704.00
2018-12-21T22:22:39.393Z,97711.00
2018-12-21T22:25:08.542Z,97718.00
2018-12-21T22:27:37.176Z,97719.00
2018-12-21T22:30:08.297Z,97727.00
2018-12-21T22:32:37.020Z,97731.00
2018-12-21T22:35:08.278Z,97741.00
2018-12-21T22:37:36.974Z,97741.00
2018-12-21T22:40:06.189Z,97740.00
2018-12-21T22:42:34.870Z,97732.00
2018-12-21T22:45:03.485Z,97735.00
2018-12-21T22:47:32.107Z,97734.00
2018-12-21T22:50:00.720Z,97736.00
2018-12-21T22:52:29.303Z,97738.00
2018-12-21T22:54:57.910Z,97736.00
2018-12-21T22:57:26.526Z,97726.00
2018-12-21T22:59:55.111Z,97726.00
2018-12-21T23:02:23.722Z,97735.00
2018-12-21T23:04:52.351Z,97729.00
2018-12-21T23:07:21.000Z,97728.00
2018-12-21T23:09:49.612Z,97723.00
2018-12-21T23:12:18.211Z,97729.00
2018-12-21T23:14:46.831Z,97737.00
2018-12-21T23:17:15.435Z,97735.00
2018-12-21T23:19:44.004Z,97741.00
2018-12-21T23:22:12.659Z,97751.00
2018-12-21T23:24:41.207Z,97740.00
2018-12-21T23:27:09.814Z,97746.00
2018-12-21T23:29:38.679Z,97748.00
2018-12-21T23:32:07.348Z,97742.00
2018-12-21T23:34:35.909Z,97739.00
2018-12-21T23:37:04.458Z,97731.00
2018-12-21T23:39:32.994Z,97729.00
2018-12-21T23:42:01.589Z,97739.00
2018-12-21T23:44:30.185Z,97729.00
2018-12-21T23:46:58.828Z,97737.00
2018-12-21T23:49:27.434Z,97737.00
2018-12-21T23:51:56.035Z,97743.00
2018-12-21T23:54:24.630Z,97735.00
2018-12-21T23:56:53.246Z,97735.00
2018-12-21T23:59:21.858Z,97739.00
